sensor_id;sensor_type;location;lat;lon;timestamp;pressure;altitude;pressure_sealevel;temperature;humidity
42587;BME280;28216;53.362;-6.288;2023-04-08T00:00:05;101984.69;;;8.38;100.00
42587;BME280;28216;53.362;-6.288;2023-04-08T00:02:32;101977.81;;;8.48;100.00
42587;BME280;28216;53.362;-6.288;2023-04-08T00:04:58;101981.38;;;8.47;100.00
42587;BME280;28216;53.362;-6.288;2023-04-08T00:07:23;101975.22;;;8.48;100.00
42587;BME280;28216;53.362;-6.288;2023-04-08T00:09:49;101982.34;;;8.46;100.00
42587;BME280;28216;53.362;-6.288;2023-04-08T00:12:15;101981.63;;;8.44;100.00
42587;BME280;28216;53.362;-6.288;2023-04-08T00:14:40;101979.00;;;8.44;100.00
42587;BME280;28216;53.362;-6.288;2023-04-08T00:17:06;101975.31;;;8.46;100.00
42587;BME280;28216;53.362;-6.288;2023-04-08T00:19:32;101980.19;;;8.40;100.00
42587;BME280;28216;53.362;-6.288;2023-04-08T00:21:58;101982.56;;;8.43;100.00
42587;BME280;28216;53.362;-6.288;2023-04-08T00:24:23;101981.97;;;8.39;100.00
42587;BME280;28216;53.362;-6.288;2023-04-08T00:26:49;101980.78;;;8.43;100.00
42587;BME280;28216;53.362;-6.288;2023-04-08T00:29:15;101973.31;;;8.50;100.00
42587;BME280;28216;53.362;-6.288;2023-04-08T00:31:40;101973.44;;;8.48;100.00
42587;BME280;28216;53.362;-6.288;2023-04-08T00:34:06;101968.66;;;8.42;100.00
42587;BME280;28216;53.362;-6.288;2023-04-08T00:36:31;101965.69;;;8.47;100.00
42587;BME280;28216;53.362;-6.288;2023-04-08T00:38:57;101967.84;;;8.53;100.00
42587;BME280;28216;53.362;-6.288;2023-04-08T00:41:22;101973.78;;;8.44;100.00
42587;BME280;28216;53.362;-6.288;2023-04-08T00:43:47;101973.06;;;8.42;100.00
42587;BME280;28216;53.362;-6.288;2023-04-08T00:46:13;101970.09;;;8.46;100.00
42587;BME280;28216;53.362;-6.288;2023-04-08T00:48:39;101974.75;;;8.54;100.00
42587;BME280;28216;53.362;-6.288;2023-04-08T00:51:04;101977.34;;;8.43;100.00
42587;BME280;28216;53.362;-6.288;2023-04-08T00:53:30;101982.69;;;8.52;100.00
42587;BME280;28216;53.362;-6.288;2023-04-08T00:55:56;101984.00;;;8.58;100.00
42587;BME280;28216;53.362;-6.288;2023-04-08T00:58:22;101979.97;;;8.54;100.00
42587;BME280;28216;53.362;-6.288;2023-04-08T01:00:57;101976.53;;;8.53;100.00
42587;BME280;28216;53.362;-6.288;2023-04-08T01:08:53;101964.16;;;8.44;100.00
42587;BME280;28216;53.362;-6.288;2023-04-08T01:11:19;101966.66;;;8.46;100.00
42587;BME280;28216;53.362;-6.288;2023-04-08T01:13:46;101967.25;;;8.49;100.00
42587;BME280;28216;53.362;-6.288;2023-04-08T01:16:14;101968.19;;;8.48;100.00
42587;BME280;28216;53.362;-6.288;2023-04-08T01:18:42;101971.41;;;8.52;100.00
42587;BME280;28216;53.362;-6.288;2023-04-08T01:21:10;101968.56;;;8.55;100.00
42587;BME280;28216;53.362;-6.288;2023-04-08T01:24:11;101964.41;;;8.64;100.00
42587;BME280;28216;53.362;-6.288;2023-04-08T01:26:41;101961.09;;;8.62;100.00
42587;BME280;28216;53.362;-6.288;2023-04-08T01:29:07;101959.91;;;8.66;100.00
42587;BME280;28216;53.362;-6.288;2023-04-08T01:31:35;101962.75;;;8.74;100.00
42587;BME280;28216;53.362;-6.288;2023-04-08T01:34:02;101963.25;;;8.79;100.00
42587;BME280;28216;53.362;-6.288;2023-04-08T01:36:29;101964.31;;;8.76;100.00
42587;BME280;28216;53.362;-6.288;2023-04-08T01:38:59;101968.34;;;8.80;100.00
42587;BME280;28216;53.362;-6.288;2023-04-08T01:41:25;101964.78;;;8.81;100.00
42587;BME280;28216;53.362;-6.288;2023-04-08T01:43:51;101964.31;;;8.87;100.00
42587;BME280;28216;53.362;-6.288;2023-04-08T01:46:19;101964.44;;;8.86;100.00
42587;BME280;28216;53.362;-6.288;2023-04-08T01:48:45;101966.69;;;8.90;100.00
42587;BME280;28216;53.362;-6.288;2023-04-08T01:51:14;101959.19;;;8.86;100.00
42587;BME280;28216;53.362;-6.288;2023-04-08T01:53:39;101962.53;;;8.88;100.00
42587;BME280;28216;53.362;-6.288;2023-04-08T01:56:08;101961.38;;;8.92;100.00
42587;BME280;28216;53.362;-6.288;2023-04-08T01:58:41;101953.28;;;8.95;100.00
42587;BME280;28216;53.362;-6.288;2023-04-08T02:01:11;101958.50;;;8.95;100.00
42587;BME280;28216;53.362;-6.288;2023-04-08T02:03:40;101959.09;;;8.99;100.00
42587;BME280;28216;53.362;-6.288;2023-04-08T02:06:06;101958.16;;;9.00;100.00
42587;BME280;28216;53.362;-6.288;2023-04-08T02:08:33;101960.91;;;8.98;100.00
42587;BME280;28216;53.362;-6.288;2023-04-08T02:11:00;101957.81;;;8.93;100.00
42587;BME280;28216;53.362;-6.288;2023-04-08T02:13:27;101963.97;;;8.81;100.00
42587;BME280;28216;53.362;-6.288;2023-04-08T02:15:56;101963.00;;;8.71;100.00
42587;BME280;28216;53.362;-6.288;2023-04-08T02:18:25;101960.50;;;8.80;100.00
42587;BME280;28216;53.362;-6.288;2023-04-08T02:21:01;101963.59;;;8.63;100.00
42587;BME280;28216;53.362;-6.288;2023-04-08T02:23:33;101958.13;;;8.66;100.00
42587;BME280;28216;53.362;-6.288;2023-04-08T02:26:01;101959.06;;;8.65;100.00
42587;BME280;28216;53.362;-6.288;2023-04-08T02:28:29;101959.44;;;8.60;100.00
42587;BME280;28216;53.362;-6.288;2023-04-08T02:30:59;101962.41;;;8.67;100.00
42587;BME280;28216;53.362;-6.288;2023-04-08T02:33:26;101971.78;;;8.58;100.00
42587;BME280;28216;53.362;-6.288;2023-04-08T02:35:51;101961.56;;;8.67;100.00
42587;BME280;28216;53.362;-6.288;2023-04-08T02:38:19;101959.06;;;8.65;100.00
42587;BME280;28216;53.362;-6.288;2023-04-08T02:40:45;101958.34;;;8.52;100.00
42587;BME280;28216;53.362;-6.288;2023-04-08T02:43:13;101956.94;;;8.59;100.00
42587;BME280;28216;53.362;-6.288;2023-04-08T02:45:41;101956.69;;;8.62;100.00
42587;BME280;28216;53.362;-6.288;2023-04-08T02:48:06;101956.09;;;8.70;100.00
42587;BME280;28216;53.362;-6.288;2023-04-08T02:50:32;101949.69;;;8.74;100.00
42587;BME280;28216;53.362;-6.288;2023-04-08T02:52:58;101958.34;;;8.63;100.00
42587;BME280;28216;53.362;-6.288;2023-04-08T02:55:23;101951.94;;;8.67;100.00
42587;BME280;28216;53.362;-6.288;2023-04-08T02:57:49;101951.94;;;8.67;100.00
42587;BME280;28216;53.362;-6.288;2023-04-08T03:00:15;101950.63;;;8.62;100.00
42587;BME280;28216;53.362;-6.288;2023-04-08T03:02:41;101948.25;;;8.58;100.00
42587;BME280;28216;53.362;-6.288;2023-04-08T03:05:07;101942.78;;;8.62;100.00
42587;BME280;28216;53.362;-6.288;2023-04-08T03:07:34;101942.78;;;8.62;100.00
42587;BME280;28216;53.362;-6.288;2023-04-08T03:09:59;101946.84;;;8.66;100.00
42587;BME280;28216;53.362;-6.288;2023-04-08T03:12:25;101945.53;;;8.60;100.00
42587;BME280;28216;53.362;-6.288;2023-04-08T03:14:53;101950.03;;;8.69;100.00
42587;BME280;28216;53.362;-6.288;2023-04-08T03:17:19;101946.00;;;8.76;100.00
42587;BME280;28216;53.362;-6.288;2023-04-08T03:19:44;101951.47;;;8.73;100.00
42587;BME280;28216;53.362;-6.288;2023-04-08T03:22:10;101951.72;;;8.70;100.00
42587;BME280;28216;53.362;-6.288;2023-04-08T03:24:36;101947.78;;;8.76;100.00
42587;BME280;28216;53.362;-6.288;2023-04-08T03:27:01;101944.81;;;8.69;100.00
42587;BME280;28216;53.362;-6.288;2023-04-08T03:29:27;101943.75;;;8.72;100.00
42587;BME280;28216;53.362;-6.288;2023-04-08T03:31:52;101946.34;;;8.72;100.00
42587;BME280;28216;53.362;-6.288;2023-04-08T03:34:18;101948.50;;;8.78;100.00
42587;BME280;28216;53.362;-6.288;2023-04-08T03:36:43;101948.84;;;8.73;100.00
42587;BME280;28216;53.362;-6.288;2023-04-08T03:39:09;101944.09;;;8.67;100.00
42587;BME280;28216;53.362;-6.288;2023-04-08T03:41:34;101938.28;;;8.75;100.00
42587;BME280;28216;53.362;-6.288;2023-04-08T03:44:00;101948.84;;;8.73;100.00
42587;BME280;28216;53.362;-6.288;2023-04-08T03:46:25;101941.59;;;8.66;100.00
42587;BME280;28216;53.362;-6.288;2023-04-08T03:48:51;101942.44;;;8.66;100.00
42587;BME280;28216;53.362;-6.288;2023-04-08T03:51:16;101937.09;;;8.68;100.00
42587;BME280;28216;53.362;-6.288;2023-04-08T03:53:41;101933.16;;;8.62;100.00
42587;BME280;28216;53.362;-6.288;2023-04-08T03:56:07;101933.38;;;8.48;100.00
42587;BME280;28216;53.362;-6.288;2023-04-08T03:58:32;101932.09;;;8.53;100.00
42587;BME280;28216;53.362;-6.288;2023-04-08T04:00:58;101937.09;;;8.56;100.00
42587;BME280;28216;53.362;-6.288;2023-04-08T04:03:23;101938.75;;;8.57;100.00
42587;BME280;28216;53.362;-6.288;2023-04-08T04:05:49;101933.41;;;8.59;100.00
42587;BME280;28216;53.362;-6.288;2023-04-08T04:08:14;101935.31;;;8.57;100.00
42587;BME280;28216;53.362;-6.288;2023-04-08T04:10:40;101934.47;;;8.56;100.00
42587;BME280;28216;53.362;-6.288;2023-04-08T04:13:05;101940.66;;;8.55;100.00
42587;BME280;28216;53.362;-6.288;2023-04-08T04:15:31;101940.75;;;8.54;100.00
42587;BME280;28216;53.362;-6.288;2023-04-08T04:17:56;101936.72;;;8.50;100.00
42587;BME280;28216;53.362;-6.288;2023-04-08T04:20:22;101934.34;;;8.47;100.00
42587;BME280;28216;53.362;-6.288;2023-04-08T04:22:47;101940.41;;;8.47;100.00
42587;BME280;28216;53.362;-6.288;2023-04-08T04:25:13;101940.16;;;8.50;100.00
42587;BME280;28216;53.362;-6.288;2023-04-08T04:27:38;101935.06;;;8.49;100.00
42587;BME280;28216;53.362;-6.288;2023-04-08T04:30:04;101933.97;;;8.51;100.00
42587;BME280;28216;53.362;-6.288;2023-04-08T04:32:31;101942.78;;;8.50;100.00
42587;BME280;28216;53.362;-6.288;2023-04-08T04:34:57;101935.06;;;8.49;100.00
42587;BME280;28216;53.362;-6.288;2023-04-08T04:37:22;101932.56;;;8.47;100.00
42587;BME280;28216;53.362;-6.288;2023-04-08T04:39:47;101936.13;;;8.46;100.00
42587;BME280;28216;53.362;-6.288;2023-04-08T04:42:13;101943.47;;;8.41;100.00
42587;BME280;28216;53.362;-6.288;2023-04-08T04:44:38;101943.59;;;8.40;100.00
42587;BME280;28216;53.362;-6.288;2023-04-08T04:47:04;101941.09;;;8.38;100.00
42587;BME280;28216;53.362;-6.288;2023-04-08T04:49:29;101934.22;;;8.37;100.00
42587;BME280;28216;53.362;-6.288;2023-04-08T04:51:55;101940.38;;;8.36;100.00
42587;BME280;28216;53.362;-6.288;2023-04-08T04:54:20;101937.13;;;8.33;100.00
42587;BME280;28216;53.362;-6.288;2023-04-08T04:56:46;101940.69;;;8.32;100.00
42587;BME280;28216;53.362;-6.288;2023-04-08T04:59:11;101936.53;;;8.29;100.00
42587;BME280;28216;53.362;-6.288;2023-04-08T05:01:37;101938.78;;;8.22;100.00
42587;BME280;28216;53.362;-6.288;2023-04-08T05:04:05;101948.28;;;8.23;100.00
42587;BME280;28216;53.362;-6.288;2023-04-08T05:06:30;101946.84;;;8.19;100.00
42587;BME280;28216;53.362;-6.288;2023-04-08T05:08:56;101946.22;;;8.16;100.00
42587;BME280;28216;53.362;-6.288;2023-04-08T05:11:21;101948.81;;;8.16;100.00
42587;BME280;28216;53.362;-6.288;2023-04-08T05:13:47;101948.78;;;8.05;100.00
42587;BME280;28216;53.362;-6.288;2023-04-08T05:16:12;101944.75;;;8.01;100.00
42587;BME280;28216;53.362;-6.288;2023-04-08T05:18:38;101945.06;;;7.96;100.00
42587;BME280;28216;53.362;-6.288;2023-04-08T05:21:03;101942.34;;;7.97;100.00
42587;BME280;28216;53.362;-6.288;2023-04-08T05:23:29;101944.97;;;7.97;100.00
42587;BME280;28216;53.362;-6.288;2023-04-08T05:25:54;101945.78;;;7.98;100.00
42587;BME280;28216;53.362;-6.288;2023-04-08T05:28:20;101954.56;;;7.97;100.00
42587;BME280;28216;53.362;-6.288;2023-04-08T05:30:49;101956.34;;;7.96;100.00
42587;BME280;28216;53.362;-6.288;2023-04-08T05:33:15;101943.63;;;7.92;100.00
42587;BME280;28216;53.362;-6.288;2023-04-08T05:35:41;101958.69;;;7.88;100.00
42587;BME280;28216;53.362;-6.288;2023-04-08T05:38:06;101967.47;;;7.87;100.00
42587;BME280;28216;53.362;-6.288;2023-04-08T05:40:32;101960.25;;;7.91;100.00
42587;BME280;28216;53.362;-6.288;2023-04-08T05:42:57;101964.88;;;7.87;100.00
42587;BME280;28216;53.362;-6.288;2023-04-08T05:45:23;101965.59;;;7.89;100.00
42587;BME280;28216;53.362;-6.288;2023-04-08T05:47:48;101962.75;;;7.92;100.00
42587;BME280;28216;53.362;-6.288;2023-04-08T05:50:14;101951.75;;;8.00;100.00
42587;BME280;28216;53.362;-6.288;2023-04-08T05:52:42;101958.47;;;7.91;100.00
42587;BME280;28216;53.362;-6.288;2023-04-08T05:55:09;101970.69;;;7.91;100.00
42587;BME280;28216;53.362;-6.288;2023-04-08T05:57:35;101970.59;;;7.92;100.00
42587;BME280;28216;53.362;-6.288;2023-04-08T06:00:00;101972.38;;;7.92;100.00
42587;BME280;28216;53.362;-6.288;2023-04-08T06:02:26;101979.38;;;7.91;100.00
42587;BME280;28216;53.362;-6.288;2023-04-08T06:04:51;101975.81;;;7.92;100.00
42587;BME280;28216;53.362;-6.288;2023-04-08T06:07:17;101983.41;;;7.95;100.00
42587;BME280;28216;53.362;-6.288;2023-04-08T06:09:42;101977.25;;;7.96;100.00
42587;BME280;28216;53.362;-6.288;2023-04-08T06:12:08;101981.06;;;8.04;100.00
42587;BME280;28216;53.362;-6.288;2023-04-08T06:14:33;101975.75;;;8.05;100.00
42587;BME280;28216;53.362;-6.288;2023-04-08T06:16:59;101979.69;;;8.11;100.00
42587;BME280;28216;53.362;-6.288;2023-04-08T06:19:24;101969.41;;;8.20;100.00
42587;BME280;28216;53.362;-6.288;2023-04-08T06:21:50;101975.84;;;8.27;100.00
42587;BME280;28216;53.362;-6.288;2023-04-08T06:24:16;101982.06;;;8.38;100.00
42587;BME280;28216;53.362;-6.288;2023-04-08T06:26:41;101976.63;;;8.41;100.00
42587;BME280;28216;53.362;-6.288;2023-04-08T06:29:07;101986.47;;;8.37;100.00
42587;BME280;28216;53.362;-6.288;2023-04-08T06:31:32;101979.84;;;8.44;100.00
42587;BME280;28216;53.362;-6.288;2023-04-08T06:33:58;101985.44;;;8.51;100.00
42587;BME280;28216;53.362;-6.288;2023-04-08T06:36:24;101984.72;;;8.60;100.00
42587;BME280;28216;53.362;-6.288;2023-04-08T06:38:49;101988.06;;;8.62;100.00
42587;BME280;28216;53.362;-6.288;2023-04-08T06:41:15;101989.97;;;8.71;100.00
42587;BME280;28216;53.362;-6.288;2023-04-08T06:43:40;101995.91;;;8.73;100.00
42587;BME280;28216;53.362;-6.288;2023-04-08T06:46:06;102000.06;;;8.65;100.00
42587;BME280;28216;53.362;-6.288;2023-04-08T06:48:31;101999.84;;;8.68;100.00
42587;BME280;28216;53.362;-6.288;2023-04-08T06:50:58;102002.47;;;8.79;100.00
42587;BME280;28216;53.362;-6.288;2023-04-08T06:53:24;102001.03;;;8.75;100.00
42587;BME280;28216;53.362;-6.288;2023-04-08T06:55:50;102007.34;;;8.83;100.00
42587;BME280;28216;53.362;-6.288;2023-04-08T06:58:16;102001.03;;;8.75;100.00
42587;BME280;28216;53.362;-6.288;2023-04-08T07:00:42;101999.75;;;8.91;100.00
42587;BME280;28216;53.362;-6.288;2023-04-08T07:03:08;101999.53;;;8.95;100.00
42587;BME280;28216;53.362;-6.288;2023-04-08T07:05:36;101995.72;;;9.10;100.00
42587;BME280;28216;53.362;-6.288;2023-04-08T07:08:03;102007.50;;;9.04;100.00
42587;BME280;28216;53.362;-6.288;2023-04-08T07:10:28;102005.38;;;9.09;100.00
42587;BME280;28216;53.362;-6.288;2023-04-08T07:12:54;102008.81;;;9.10;100.00
42587;BME280;28216;53.362;-6.288;2023-04-08T07:15:19;102010.22;;;9.25;100.00
42587;BME280;28216;53.362;-6.288;2023-04-08T07:17:45;102009.50;;;9.34;100.00
42587;BME280;28216;53.362;-6.288;2023-04-08T07:20:12;102003.50;;;9.66;100.00
42587;BME280;28216;53.362;-6.288;2023-04-08T07:22:38;102018.66;;;9.51;100.00
42587;BME280;28216;53.362;-6.288;2023-04-08T07:25:04;102012.78;;;9.81;100.00
42587;BME280;28216;53.362;-6.288;2023-04-08T07:27:29;102007.63;;;9.91;100.00
42587;BME280;28216;53.362;-6.288;2023-04-08T07:29:55;102015.81;;;9.97;100.00
42587;BME280;28216;53.362;-6.288;2023-04-08T07:32:20;102019.00;;;10.01;100.00
42587;BME280;28216;53.362;-6.288;2023-04-08T07:34:46;102021.50;;;10.02;100.00
42587;BME280;28216;53.362;-6.288;2023-04-08T07:37:11;102023.72;;;10.18;100.00
42587;BME280;28216;53.362;-6.288;2023-04-08T07:39:37;102014.78;;;10.21;100.00
42587;BME280;28216;53.362;-6.288;2023-04-08T07:42:02;102028.31;;;10.37;100.00
42587;BME280;28216;53.362;-6.288;2023-04-08T07:44:28;102022.50;;;10.54;100.00
42587;BME280;28216;53.362;-6.288;2023-04-08T07:46:53;102025.75;;;10.88;100.00
42587;BME280;28216;53.362;-6.288;2023-04-08T07:49:19;102033.50;;;10.90;100.00
42587;BME280;28216;53.362;-6.288;2023-04-08T07:51:44;102033.75;;;11.48;100.00
42587;BME280;28216;53.362;-6.288;2023-04-08T07:54:09;102034.69;;;11.37;100.00
42587;BME280;28216;53.362;-6.288;2023-04-08T07:56:36;102038.50;;;11.73;100.00
42587;BME280;28216;53.362;-6.288;2023-04-08T07:59:07;102034.97;;;11.43;100.00
42587;BME280;28216;53.362;-6.288;2023-04-08T08:01:32;102043.66;;;11.34;100.00
42587;BME280;28216;53.362;-6.288;2023-04-08T08:03:59;102040.34;;;11.32;100.00
42587;BME280;28216;53.362;-6.288;2023-04-08T08:06:25;102039.41;;;11.43;100.00
42587;BME280;28216;53.362;-6.288;2023-04-08T08:08:52;102040.91;;;11.36;100.00
42587;BME280;28216;53.362;-6.288;2023-04-08T08:11:17;102051.06;;;11.20;100.00
42587;BME280;28216;53.362;-6.288;2023-04-08T08:13:43;102055.56;;;11.38;100.00
42587;BME280;28216;53.362;-6.288;2023-04-08T08:16:08;102051.75;;;11.52;100.00
42587;BME280;28216;53.362;-6.288;2023-04-08T08:18:36;102051.22;;;11.68;100.00
42587;BME280;28216;53.362;-6.288;2023-04-08T08:21:02;102049.25;;;12.00;100.00
42587;BME280;28216;53.362;-6.288;2023-04-08T08:23:27;102041.19;;;12.60;100.00
42587;BME280;28216;53.362;-6.288;2023-04-08T08:26:05;102052.16;;;12.65;100.00
42587;BME280;28216;53.362;-6.288;2023-04-08T08:28:31;102056.31;;;12.19;100.00
42587;BME280;28216;53.362;-6.288;2023-04-08T08:30:57;102056.47;;;12.37;100.00
42587;BME280;28216;53.362;-6.288;2023-04-08T08:33:23;102049.78;;;12.62;100.00
42587;BME280;28216;53.362;-6.288;2023-04-08T08:35:49;102058.25;;;12.65;100.00
42587;BME280;28216;53.362;-6.288;2023-04-08T08:38:14;102053.97;;;12.26;100.00
42587;BME280;28216;53.362;-6.288;2023-04-08T08:40:42;102054.91;;;12.54;100.00
42587;BME280;28216;53.362;-6.288;2023-04-08T08:43:08;102052.03;;;12.28;100.00
42587;BME280;28216;53.362;-6.288;2023-04-08T08:45:38;102040.50;;;12.58;100.00
42587;BME280;28216;53.362;-6.288;2023-04-08T08:48:03;102034.94;;;12.90;100.00
42587;BME280;28216;53.362;-6.288;2023-04-08T08:50:30;102042.13;;;12.88;100.00
42587;BME280;28216;53.362;-6.288;2023-04-08T08:52:55;102037.56;;;12.90;100.00
42587;BME280;28216;53.362;-6.288;2023-04-08T08:55:21;102044.38;;;12.73;100.00
42587;BME280;28216;53.362;-6.288;2023-04-08T08:57:50;102037.47;;;12.72;100.00
42587;BME280;28216;53.362;-6.288;2023-04-08T09:00:16;102038.91;;;13.03;100.00
42587;BME280;28216;53.362;-6.288;2023-04-08T09:02:42;102037.31;;;12.83;100.00
42587;BME280;28216;53.362;-6.288;2023-04-08T09:05:08;102038.50;;;12.98;100.00
42587;BME280;28216;53.362;-6.288;2023-04-08T09:07:37;102038.34;;;13.00;100.00
42587;BME280;28216;53.362;-6.288;2023-04-08T09:10:06;102036.38;;;13.21;100.00
42587;BME280;28216;53.362;-6.288;2023-04-08T09:12:31;102034.16;;;13.54;100.00
42587;BME280;28216;53.362;-6.288;2023-04-08T09:15:07;102034.09;;;13.63;100.00
42587;BME280;28216;53.362;-6.288;2023-04-08T09:17:33;102038.72;;;13.79;100.00
42587;BME280;28216;53.362;-6.288;2023-04-08T09:22:37;102037.88;;;13.24;100.00
42587;BME280;28216;53.362;-6.288;2023-04-08T09:25:25;102026.59;;;12.94;100.00
42587;BME280;28216;53.362;-6.288;2023-04-08T09:27:51;102038.91;;;13.03;100.00
42587;BME280;28216;53.362;-6.288;2023-04-08T09:30:18;102036.28;;;13.03;100.00
42587;BME280;28216;53.362;-6.288;2023-04-08T09:32:48;102032.22;;;13.09;100.00
42587;BME280;28216;53.362;-6.288;2023-04-08T09:35:19;102032.09;;;13.11;100.00
42587;BME280;28216;53.362;-6.288;2023-04-08T09:37:45;102026.25;;;13.17;100.00
42587;BME280;28216;53.362;-6.288;2023-04-08T09:40:13;102028.78;;;13.46;100.00
42587;BME280;28216;53.362;-6.288;2023-04-08T09:42:43;102030.75;;;13.34;100.00
42587;BME280;28216;53.362;-6.288;2023-04-08T09:45:09;102031.53;;;13.72;100.00
42587;BME280;28216;53.362;-6.288;2023-04-08T09:47:54;102035.97;;;13.71;100.00
42587;BME280;28216;53.362;-6.288;2023-04-08T09:50:25;102037.13;;;13.68;100.00
42587;BME280;28216;53.362;-6.288;2023-04-08T09:52:54;102040.44;;;13.71;100.00
42587;BME280;28216;53.362;-6.288;2023-04-08T09:55:21;102044.19;;;13.68;100.00
42587;BME280;28216;53.362;-6.288;2023-04-08T10:00:24;102042.09;;;14.07;100.00
42587;BME280;28216;53.362;-6.288;2023-04-08T10:02:55;102038.81;;;14.23;100.00
42587;BME280;28216;53.362;-6.288;2023-04-08T10:05:26;102049.50;;;14.39;100.00
42587;BME280;28216;53.362;-6.288;2023-04-08T10:07:52;102041.59;;;14.57;95.49
42587;BME280;28216;53.362;-6.288;2023-04-08T10:10:18;102041.59;;;14.83;93.64
42587;BME280;28216;53.362;-6.288;2023-04-08T10:12:44;102034.06;;;14.88;89.24
42587;BME280;28216;53.362;-6.288;2023-04-08T10:15:29;102044.22;;;14.83;95.23
42587;BME280;28216;53.362;-6.288;2023-04-08T10:20:45;102029.38;;;14.82;100.00
42587;BME280;28216;53.362;-6.288;2023-04-08T10:23:13;102033.53;;;14.84;100.00
42587;BME280;28216;53.362;-6.288;2023-04-08T10:25:51;102033.06;;;14.63;100.00
42587;BME280;28216;53.362;-6.288;2023-04-08T10:30:50;102028.31;;;14.92;99.61
42587;BME280;28216;53.362;-6.288;2023-04-08T10:33:21;102025.94;;;15.15;93.66
42587;BME280;28216;53.362;-6.288;2023-04-08T10:38:15;102020.41;;;15.35;93.69
42587;BME280;28216;53.362;-6.288;2023-04-08T10:40:42;102038.50;;;15.13;85.15
42587;BME280;28216;53.362;-6.288;2023-04-08T10:43:09;102024.38;;;14.97;82.95
42587;BME280;28216;53.362;-6.288;2023-04-08T10:45:35;102013.66;;;14.98;83.88
42587;BME280;28216;53.362;-6.288;2023-04-08T10:48:21;102013.72;;;15.14;86.81
42587;BME280;28216;53.362;-6.288;2023-04-08T10:53:29;102010.19;;;14.98;100.00
42587;BME280;28216;53.362;-6.288;2023-04-08T10:56:12;102012.22;;;15.12;100.00
42587;BME280;28216;53.362;-6.288;2023-04-08T10:58:54;102024.19;;;14.72;100.00
42587;BME280;28216;53.362;-6.288;2023-04-08T11:01:37;102009.50;;;14.44;100.00
42587;BME280;28216;53.362;-6.288;2023-04-08T11:04:11;102011.38;;;14.34;100.00
42587;BME280;28216;53.362;-6.288;2023-04-08T11:06:37;102012.66;;;14.29;100.00
42587;BME280;28216;53.362;-6.288;2023-04-08T11:09:03;102003.38;;;14.25;100.00
42587;BME280;28216;53.362;-6.288;2023-04-08T11:11:29;102001.81;;;13.97;100.00
42587;BME280;28216;53.362;-6.288;2023-04-08T11:13:55;101999.25;;;14.05;100.00
42587;BME280;28216;53.362;-6.288;2023-04-08T11:16:21;102001.13;;;13.95;100.00
42587;BME280;28216;53.362;-6.288;2023-04-08T11:18:47;102000.97;;;13.79;100.00
42587;BME280;28216;53.362;-6.288;2023-04-08T11:21:14;102012.50;;;13.78;100.00
42587;BME280;28216;53.362;-6.288;2023-04-08T11:23:41;101997.34;;;13.80;100.00
42587;BME280;28216;53.362;-6.288;2023-04-08T11:26:06;101999.09;;;13.89;100.00
42587;BME280;28216;53.362;-6.288;2023-04-08T11:28:33;102007.09;;;14.15;100.00
42587;BME280;28216;53.362;-6.288;2023-04-08T11:31:00;101996.00;;;14.29;100.00
42587;BME280;28216;53.362;-6.288;2023-04-08T11:33:30;101996.97;;;14.46;100.00
42587;BME280;28216;53.362;-6.288;2023-04-08T11:35:56;101999.78;;;14.70;100.00
42587;BME280;28216;53.362;-6.288;2023-04-08T11:38:23;102000.25;;;14.66;100.00
42587;BME280;28216;53.362;-6.288;2023-04-08T11:40:56;102003.88;;;14.65;100.00
42587;BME280;28216;53.362;-6.288;2023-04-08T11:43:23;101994.22;;;14.81;100.00
42587;BME280;28216;53.362;-6.288;2023-04-08T11:45:49;102000.84;;;14.85;100.00
42587;BME280;28216;53.362;-6.288;2023-04-08T11:48:15;101982.34;;;15.11;97.89
42587;BME280;28216;53.362;-6.288;2023-04-08T11:50:42;101995.88;;;14.82;94.27
42587;BME280;28216;53.362;-6.288;2023-04-08T11:53:24;101993.22;;;15.08;94.49
42587;BME280;28216;53.362;-6.288;2023-04-08T11:55:49;101985.44;;;14.99;94.46
42587;BME280;28216;53.362;-6.288;2023-04-08T11:58:15;101987.16;;;15.16;92.48
42587;BME280;28216;53.362;-6.288;2023-04-08T12:00:41;101993.53;;;15.05;90.30
42587;BME280;28216;53.362;-6.288;2023-04-08T12:03:08;101981.03;;;15.15;91.34
42587;BME280;28216;53.362;-6.288;2023-04-08T12:05:34;101989.81;;;15.24;92.10
42587;BME280;28216;53.362;-6.288;2023-04-08T12:08:02;101983.38;;;15.18;90.88
42587;BME280;28216;53.362;-6.288;2023-04-08T12:10:28;101978.50;;;15.48;91.29
42587;BME280;28216;53.362;-6.288;2023-04-08T12:12:53;101980.59;;;15.70;91.32
42587;BME280;28216;53.362;-6.288;2023-04-08T12:15:19;101978.50;;;15.56;92.11
42587;BME280;28216;53.362;-6.288;2023-04-08T12:17:44;101976.63;;;15.74;93.34
42587;BME280;28216;53.362;-6.288;2023-04-08T12:20:10;101981.22;;;15.64;97.47
42587;BME280;28216;53.362;-6.288;2023-04-08T12:22:36;101974.47;;;15.70;100.00
42587;BME280;28216;53.362;-6.288;2023-04-08T12:25:02;101986.38;;;15.90;100.00
42587;BME280;28216;53.362;-6.288;2023-04-08T12:27:31;101983.56;;;15.75;100.00
42587;BME280;28216;53.362;-6.288;2023-04-08T12:30:01;101983.59;;;16.00;100.00
42587;BME280;28216;53.362;-6.288;2023-04-08T12:32:27;101982.09;;;15.81;100.00
42587;BME280;28216;53.362;-6.288;2023-04-08T12:34:53;101981.91;;;15.66;100.00
42587;BME280;28216;53.362;-6.288;2023-04-08T12:37:18;101992.97;;;15.70;100.00
42587;BME280;28216;53.362;-6.288;2023-04-08T12:39:45;101978.00;;;15.44;100.00
42587;BME280;28216;53.362;-6.288;2023-04-08T12:42:10;101995.78;;;15.26;100.00
42587;BME280;28216;53.362;-6.288;2023-04-08T12:44:36;101985.59;;;14.97;100.00
42587;BME280;28216;53.362;-6.288;2023-04-08T12:47:01;101985.47;;;15.07;100.00
42587;BME280;28216;53.362;-6.288;2023-04-08T12:49:26;101998.63;;;14.73;100.00
42587;BME280;28216;53.362;-6.288;2023-04-08T12:51:52;101999.66;;;14.80;100.00
42587;BME280;28216;53.362;-6.288;2023-04-08T12:54:19;101986.94;;;14.75;100.00
42587;BME280;28216;53.362;-6.288;2023-04-08T12:56:45;101983.41;;;14.67;100.00